RPA5675 KLGA-KCMH
Flight info
| Callsign | RPA5675 |
|---|---|
| Flight time | 1h 27m |
| Altitude | 38000 |
| Route | ZIMMZ Q42 MIKYG Q480 AIR CLPRR3 |
| Aircraft | E170/M-SDE3GILORVW/S |
Departure
| Time | 2026-05-08 18:05 |
|---|---|
| Airport | LaGuardia Airport (KLGA) |
Arrival
| Time | 2026-05-08 19:33 |
|---|---|
| Airport | John Glenn Columbus International Airport (KCMH) |
| Time | Latitude | Longitude | Altitude | Speed | Heading |
|---|---|---|---|---|---|
| 2026-05-08 17:24 | 40.77483 | -73.87223 | 17 ft | 0 kts | 22° |
| 2026-05-08 17:32 | 40.77478 | -73.87225 | 17 ft | 28 kts | 22° |
| 2026-05-08 17:33 | 40.77480 | -73.87210 | 17 ft | 0 kts | 24° |
| 2026-05-08 17:33 | 40.77483 | -73.87223 | 17 ft | 0 kts | 22° |
| 2026-05-08 17:53 | 40.77467 | -73.87231 | 19 ft | 4 kts | 22° |
| 2026-05-08 17:53 | 40.77447 | -73.87243 | 17 ft | 4 kts | 36° |
| 2026-05-08 17:53 | 40.77433 | -73.87269 | 18 ft | 4 kts | 72° |
| 2026-05-08 17:54 | 40.77430 | -73.87296 | 17 ft | 1 kts | 90° |
| 2026-05-08 17:54 | 40.77430 | -73.87268 | 17 ft | 1 kts | 94° |
| 2026-05-08 17:54 | 40.77430 | -73.87267 | 17 ft | 0 kts | 94° |
| 2026-05-08 17:59 | 40.77429 | -73.87252 | 20 ft | 4 kts | 95° |
| 2026-05-08 17:59 | 40.77421 | -73.87206 | 10 ft | 6 kts | 113° |
| 2026-05-08 17:59 | 40.77428 | -73.87143 | 17 ft | 10 kts | 39° |
| 2026-05-08 17:59 | 40.77497 | -73.87086 | 19 ft | 14 kts | 32° |
| 2026-05-08 18:00 | 40.77580 | -73.87018 | 17 ft | 10 kts | 32° |
| 2026-05-08 18:00 | 40.77628 | -73.86963 | 12 ft | 0 kts | 99° |
| 2026-05-08 18:00 | 40.77626 | -73.86951 | 11 ft | 2 kts | 114° |
| 2026-05-08 18:01 | 40.77609 | -73.86918 | 12 ft | 10 kts | 123° |
| 2026-05-08 18:01 | 40.77550 | -73.86801 | 11 ft | 20 kts | 126° |
| 2026-05-08 18:01 | 40.77464 | -73.86643 | 10 ft | 22 kts | 122° |
| 2026-05-08 18:01 | 40.77379 | -73.86466 | 10 ft | 24 kts | 122° |
| 2026-05-08 18:02 | 40.77289 | -73.86276 | 10 ft | 25 kts | 122° |
| 2026-05-08 18:02 | 40.77225 | -73.86144 | 11 ft | 26 kts | 123° |
| 2026-05-08 18:02 | 40.77136 | -73.85957 | 10 ft | 10 kts | 122° |
| 2026-05-08 18:02 | 40.77113 | -73.85907 | 11 ft | 2 kts | 114° |
| 2026-05-08 18:03 | 40.77109 | -73.85891 | 9 ft | 2 kts | 101° |
| 2026-05-08 18:03 | 40.77116 | -73.85856 | 10 ft | 6 kts | 56° |
| 2026-05-08 18:03 | 40.77124 | -73.85842 | 10 ft | 2 kts | 51° |
| 2026-05-08 18:03 | 40.77143 | -73.85812 | 10 ft | 8 kts | 49° |
| 2026-05-08 18:04 | 40.77187 | -73.85755 | 12 ft | 11 kts | 39° |
| 2026-05-08 18:04 | 40.77219 | -73.85743 | 13 ft | 2 kts | 330° |
| 2026-05-08 18:04 | 40.77258 | -73.85817 | 14 ft | 33 kts | 302° |
| 2026-05-08 18:04 | 40.77526 | -73.86381 | 12 ft | 109 kts | 302° |
| 2026-05-08 18:05 | 40.78006 | -73.87383 | 380 ft | 136 kts | 300° |
| 2026-05-08 18:05 | 40.78549 | -73.88339 | 935 ft | 135 kts | 307° |
| 2026-05-08 18:05 | 40.79359 | -73.89195 | 1058 ft | 165 kts | 326° |
| 2026-05-08 18:05 | 40.80395 | -73.89847 | 1778 ft | 172 kts | 330° |
| 2026-05-08 18:06 | 40.81549 | -73.90506 | 2079 ft | 189 kts | 329° |
| 2026-05-08 18:06 | 40.82761 | -73.91241 | 2879 ft | 190 kts | 328° |
| 2026-05-08 18:06 | 40.84027 | -73.92047 | 3454 ft | 212 kts | 327° |
| 2026-05-08 18:06 | 40.85405 | -73.92962 | 4038 ft | 230 kts | 327° |
| 2026-05-08 18:07 | 40.86872 | -73.93970 | 4632 ft | 243 kts | 326° |
| 2026-05-08 18:07 | 40.88066 | -73.95492 | 5230 ft | 240 kts | 294° |
| 2026-05-08 18:07 | 40.88343 | -73.97609 | 5933 ft | 241 kts | 262° |
| 2026-05-08 18:07 | 40.87870 | -73.99746 | 6631 ft | 246 kts | 253° |
| 2026-05-08 18:08 | 40.87418 | -74.01469 | 7203 ft | 246 kts | 253° |
| 2026-05-08 18:08 | 40.86889 | -74.03628 | 7886 ft | 247 kts | 256° |
| 2026-05-08 18:08 | 40.86431 | -74.05820 | 8566 ft | 248 kts | 258° |
| 2026-05-08 18:08 | 40.86169 | -74.07296 | 9002 ft | 249 kts | 260° |
| 2026-05-08 18:09 | 40.85829 | -74.09555 | 9621 ft | 252 kts | 262° |
| 2026-05-08 18:09 | 40.85429 | -74.12616 | 10230 ft | 263 kts | 263° |
| 2026-05-08 18:09 | 40.85230 | -74.14243 | 10378 ft | 272 kts | 263° |
| 2026-05-08 18:09 | 40.84943 | -74.16707 | 10856 ft | 275 kts | 265° |
| 2026-05-08 18:10 | 40.84773 | -74.19231 | 11436 ft | 275 kts | 268° |
| 2026-05-08 18:10 | 40.84650 | -74.21755 | 12017 ft | 277 kts | 269° |
| 2026-05-08 18:10 | 40.84537 | -74.24311 | 12642 ft | 279 kts | 269° |
| 2026-05-08 18:10 | 40.84426 | -74.26881 | 13311 ft | 280 kts | 269° |
| 2026-05-08 18:11 | 40.84313 | -74.29430 | 13988 ft | 282 kts | 269° |
| 2026-05-08 18:11 | 40.84199 | -74.32022 | 14629 ft | 284 kts | 269° |
| 2026-05-08 18:11 | 40.84080 | -74.34652 | 15267 ft | 286 kts | 269° |
| 2026-05-08 18:11 | 40.83947 | -74.37291 | 15857 ft | 291 kts | 265° |
| 2026-05-08 18:12 | 40.83217 | -74.39825 | 16470 ft | 304 kts | 244° |
| 2026-05-08 18:12 | 40.82028 | -74.42129 | 17143 ft | 309 kts | 241° |
| 2026-05-08 18:12 | 40.80743 | -74.44426 | 17842 ft | 312 kts | 240° |
| 2026-05-08 18:12 | 40.79422 | -74.46729 | 18534 ft | 316 kts | 240° |
| 2026-05-08 18:13 | 40.78087 | -74.49039 | 19209 ft | 318 kts | 240° |
| 2026-05-08 18:13 | 40.76896 | -74.51464 | 19849 ft | 311 kts | 254° |
| 2026-05-08 18:13 | 40.76496 | -74.54203 | 20568 ft | 304 kts | 268° |
| 2026-05-08 18:13 | 40.76368 | -74.56992 | 21258 ft | 305 kts | 270° |
| 2026-05-08 18:14 | 40.76281 | -74.59770 | 21938 ft | 307 kts | 270° |
| 2026-05-08 18:14 | 40.76205 | -74.62628 | 22611 ft | 310 kts | 271° |
| 2026-05-08 18:14 | 40.76133 | -74.65447 | 23312 ft | 311 kts | 271° |
| 2026-05-08 18:14 | 40.76059 | -74.68315 | 23898 ft | 314 kts | 271° |
| 2026-05-08 18:15 | 40.75911 | -74.71217 | 24469 ft | 318 kts | 267° |
| 2026-05-08 18:15 | 40.75675 | -74.73932 | 25030 ft | 321 kts | 267° |
| 2026-05-08 18:15 | 40.75404 | -74.76873 | 25569 ft | 324 kts | 266° |
| 2026-05-08 18:15 | 40.75125 | -74.79797 | 26110 ft | 327 kts | 266° |
| 2026-05-08 18:16 | 40.74840 | -74.82789 | 26648 ft | 329 kts | 266° |
| 2026-05-08 18:16 | 40.74551 | -74.85797 | 27129 ft | 332 kts | 266° |
| 2026-05-08 18:16 | 40.74261 | -74.88836 | 27626 ft | 334 kts | 266° |
| 2026-05-08 18:16 | 40.73968 | -74.91889 | 28110 ft | 337 kts | 266° |
| 2026-05-08 18:17 | 40.73672 | -74.94963 | 28595 ft | 339 kts | 266° |
| 2026-05-08 18:17 | 40.73373 | -74.98065 | 29074 ft | 342 kts | 266° |
| 2026-05-08 18:17 | 40.73070 | -75.01195 | 29551 ft | 344 kts | 266° |
| 2026-05-08 18:17 | 40.72768 | -75.04315 | 29891 ft | 350 kts | 266° |
| 2026-05-08 18:18 | 40.72456 | -75.07543 | 30127 ft | 356 kts | 266° |
| 2026-05-08 18:18 | 40.72139 | -75.10772 | 30586 ft | 355 kts | 266° |
| 2026-05-08 18:18 | 40.71824 | -75.13994 | 31046 ft | 354 kts | 266° |
| 2026-05-08 18:18 | 40.71509 | -75.17208 | 31487 ft | 352 kts | 266° |
| 2026-05-08 18:19 | 40.71193 | -75.20419 | 31916 ft | 351 kts | 266° |
| 2026-05-08 18:19 | 40.70882 | -75.23568 | 32344 ft | 350 kts | 266° |
| 2026-05-08 18:19 | 40.70568 | -75.26752 | 32780 ft | 349 kts | 266° |
| 2026-05-08 18:19 | 40.70254 | -75.29913 | 33206 ft | 348 kts | 266° |
| 2026-05-08 18:20 | 40.69939 | -75.33083 | 33646 ft | 347 kts | 266° |
| 2026-05-08 18:20 | 40.69629 | -75.36188 | 34073 ft | 345 kts | 266° |
| 2026-05-08 18:20 | 40.69315 | -75.39337 | 34398 ft | 345 kts | 266° |
| 2026-05-08 18:20 | 40.69000 | -75.42473 | 34734 ft | 345 kts | 265° |
| 2026-05-08 18:21 | 40.68684 | -75.45607 | 35072 ft | 345 kts | 265° |
| 2026-05-08 18:21 | 40.68368 | -75.48750 | 35405 ft | 345 kts | 265° |
| 2026-05-08 18:21 | 40.68054 | -75.51851 | 35722 ft | 345 kts | 265° |
| 2026-05-08 18:21 | 40.67735 | -75.54994 | 36045 ft | 345 kts | 265° |
| 2026-05-08 18:22 | 40.67416 | -75.58126 | 36407 ft | 345 kts | 265° |
| 2026-05-08 18:22 | 40.67096 | -75.61271 | 36755 ft | 345 kts | 265° |
| 2026-05-08 18:22 | 40.66774 | -75.64413 | 37090 ft | 346 kts | 265° |
| 2026-05-08 18:22 | 40.66456 | -75.67517 | 37365 ft | 345 kts | 265° |
| 2026-05-08 18:23 | 40.66135 | -75.70637 | 37729 ft | 343 kts | 265° |
| 2026-05-08 18:23 | 40.65817 | -75.73705 | 37858 ft | 328 kts | 265° |
| 2026-05-08 18:23 | 40.65209 | -75.79607 | 37949 ft | 330 kts | 265° |
| 2026-05-08 18:24 | 40.64589 | -75.85561 | 37991 ft | 343 kts | 265° |
| 2026-05-08 18:24 | 40.63924 | -75.91908 | 38005 ft | 349 kts | 265° |
| 2026-05-08 18:25 | 40.63260 | -75.98218 | 37971 ft | 346 kts | 265° |
| 2026-05-08 18:25 | 40.62600 | -76.04466 | 37953 ft | 346 kts | 265° |
| 2026-05-08 18:26 | 40.61937 | -76.10710 | 37964 ft | 347 kts | 265° |
| 2026-05-08 18:26 | 40.61263 | -76.17014 | 37964 ft | 348 kts | 265° |
| 2026-05-08 18:27 | 40.60698 | -76.22267 | 37977 ft | 348 kts | 265° |
| 2026-05-08 18:27 | 40.59905 | -76.29619 | 37965 ft | 348 kts | 264° |
| 2026-05-08 18:28 | 40.59228 | -76.35860 | 37965 ft | 348 kts | 264° |
| 2026-05-08 18:28 | 40.58545 | -76.42122 | 37985 ft | 348 kts | 264° |
| 2026-05-08 18:29 | 40.57853 | -76.48428 | 37963 ft | 349 kts | 264° |
| 2026-05-08 18:29 | 40.57156 | -76.54744 | 37954 ft | 348 kts | 264° |
| 2026-05-08 18:30 | 40.56460 | -76.61034 | 37909 ft | 347 kts | 264° |
| 2026-05-08 18:30 | 40.55770 | -76.67236 | 37958 ft | 345 kts | 264° |
| 2026-05-08 18:31 | 40.55068 | -76.73500 | 37947 ft | 344 kts | 264° |
| 2026-05-08 18:31 | 40.54376 | -76.79661 | 37952 ft | 345 kts | 264° |
| 2026-05-08 18:32 | 40.53673 | -76.85876 | 37976 ft | 345 kts | 264° |
| 2026-05-08 18:32 | 40.52967 | -76.92087 | 37956 ft | 343 kts | 264° |
| 2026-05-08 18:33 | 40.52258 | -76.98303 | 37961 ft | 343 kts | 264° |
| 2026-05-08 18:33 | 40.51550 | -77.04483 | 37967 ft | 343 kts | 264° |
| 2026-05-08 18:34 | 40.50835 | -77.10686 | 37959 ft | 344 kts | 264° |
| 2026-05-08 18:34 | 40.50119 | -77.16860 | 37947 ft | 343 kts | 264° |
| 2026-05-08 18:35 | 40.49396 | -77.23064 | 37958 ft | 343 kts | 264° |
| 2026-05-08 18:35 | 40.48681 | -77.29186 | 37949 ft | 341 kts | 264° |
| 2026-05-08 18:36 | 40.47957 | -77.35349 | 37953 ft | 341 kts | 264° |
| 2026-05-08 18:36 | 40.47230 | -77.41506 | 37964 ft | 341 kts | 264° |
| 2026-05-08 18:37 | 40.46500 | -77.47663 | 37948 ft | 341 kts | 264° |
| 2026-05-08 18:37 | 40.45770 | -77.53783 | 37957 ft | 341 kts | 264° |
| 2026-05-08 18:38 | 40.45037 | -77.59909 | 37959 ft | 339 kts | 264° |
| 2026-05-08 18:38 | 40.44301 | -77.66033 | 37956 ft | 338 kts | 264° |
| 2026-05-08 18:39 | 40.43562 | -77.72131 | 37935 ft | 338 kts | 264° |
| 2026-05-08 18:39 | 40.42827 | -77.78201 | 37970 ft | 339 kts | 264° |
| 2026-05-08 18:40 | 40.42082 | -77.84306 | 37966 ft | 338 kts | 264° |
| 2026-05-08 18:40 | 40.41331 | -77.90421 | 37990 ft | 339 kts | 264° |
| 2026-05-08 18:41 | 40.40586 | -77.96493 | 37977 ft | 338 kts | 264° |
| 2026-05-08 18:41 | 40.39832 | -78.02601 | 37975 ft | 338 kts | 264° |
| 2026-05-08 18:42 | 40.39079 | -78.08664 | 37959 ft | 338 kts | 264° |
| 2026-05-08 18:42 | 40.38319 | -78.14753 | 37969 ft | 338 kts | 264° |
| 2026-05-08 18:43 | 40.37558 | -78.20829 | 37936 ft | 335 kts | 264° |
| 2026-05-08 18:43 | 40.36795 | -78.26897 | 37972 ft | 338 kts | 264° |
| 2026-05-08 18:44 | 40.35996 | -78.32940 | 37993 ft | 338 kts | 262° |
| 2026-05-08 18:44 | 40.34802 | -78.38960 | 38269 ft | 342 kts | 256° |
| 2026-05-08 18:45 | 40.33961 | -78.41834 | 38431 ft | 339 kts | 252° |
| 2026-05-08 18:45 | 40.32903 | -78.44567 | 38053 ft | 337 kts | 247° |
| 2026-05-08 18:45 | 40.31569 | -78.47220 | 37324 ft | 358 kts | 242° |
| 2026-05-08 18:45 | 40.29900 | -78.49766 | 36904 ft | 378 kts | 235° |
| 2026-05-08 18:46 | 40.27950 | -78.52047 | 37091 ft | 367 kts | 230° |
| 2026-05-08 18:46 | 40.25878 | -78.53999 | 37321 ft | 369 kts | 225° |
| 2026-05-08 18:46 | 40.23703 | -78.55748 | 37666 ft | 372 kts | 222° |
| 2026-05-08 18:46 | 40.21497 | -78.57478 | 38000 ft | 368 kts | 224° |
| 2026-05-08 18:47 | 40.19324 | -78.59266 | 38214 ft | 370 kts | 224° |
| 2026-05-08 18:47 | 40.17215 | -78.61203 | 38118 ft | 368 kts | 233° |
| 2026-05-08 18:47 | 40.15540 | -78.63628 | 38033 ft | 351 kts | 244° |
| 2026-05-08 18:47 | 40.14409 | -78.66368 | 37934 ft | 337 kts | 256° |
| 2026-05-08 18:48 | 40.13868 | -78.69309 | 37836 ft | 331 kts | 267° |
| 2026-05-08 18:48 | 40.13956 | -78.72302 | 37908 ft | 331 kts | 279° |
| 2026-05-08 18:48 | 40.15611 | -78.77976 | 37990 ft | 339 kts | 291° |
| 2026-05-08 18:49 | 40.17678 | -78.83509 | 37934 ft | 338 kts | 291° |
| 2026-05-08 18:49 | 40.19657 | -78.89064 | 37771 ft | 334 kts | 288° |
| 2026-05-08 18:50 | 40.20552 | -78.94938 | 37658 ft | 336 kts | 274° |
| 2026-05-08 18:50 | 40.20644 | -78.97988 | 37889 ft | 331 kts | 271° |
| 2026-05-08 18:50 | 40.20619 | -79.00993 | 38220 ft | 330 kts | 270° |
| 2026-05-08 18:51 | 40.20527 | -79.04006 | 38567 ft | 329 kts | 268° |
| 2026-05-08 18:51 | 40.20389 | -79.06956 | 38575 ft | 320 kts | 267° |
| 2026-05-08 18:51 | 40.20214 | -79.09867 | 37809 ft | 327 kts | 267° |
| 2026-05-08 18:51 | 40.19989 | -79.12832 | 37653 ft | 322 kts | 266° |
| 2026-05-08 18:52 | 40.19701 | -79.15713 | 37890 ft | 326 kts | 264° |
| 2026-05-08 18:52 | 40.19397 | -79.18680 | 37943 ft | 331 kts | 267° |
| 2026-05-08 18:52 | 40.19131 | -79.24788 | 38007 ft | 336 kts | 269° |
| 2026-05-08 18:53 | 40.18678 | -79.30854 | 38003 ft | 334 kts | 265° |
| 2026-05-08 18:53 | 40.18044 | -79.36866 | 37996 ft | 335 kts | 265° |
| 2026-05-08 18:54 | 40.17397 | -79.42891 | 38036 ft | 335 kts | 265° |
| 2026-05-08 18:54 | 40.16747 | -79.48928 | 38011 ft | 335 kts | 265° |
| 2026-05-08 18:55 | 40.15776 | -79.57926 | 38002 ft | 334 kts | 265° |
| 2026-05-08 18:56 | 40.15122 | -79.63955 | 37997 ft | 335 kts | 265° |
| 2026-05-08 18:56 | 40.14577 | -79.68960 | 37992 ft | 335 kts | 265° |
| 2026-05-08 18:57 | 40.13918 | -79.74989 | 37984 ft | 334 kts | 265° |
| 2026-05-08 18:57 | 40.13256 | -79.81005 | 37976 ft | 332 kts | 264° |
| 2026-05-08 18:58 | 40.12597 | -79.86973 | 37989 ft | 332 kts | 264° |
| 2026-05-08 18:58 | 40.11938 | -79.92908 | 37981 ft | 332 kts | 264° |
| 2026-05-08 18:59 | 40.11271 | -79.98889 | 38003 ft | 333 kts | 264° |
| 2026-05-08 18:59 | 40.10601 | -80.04870 | 38011 ft | 332 kts | 264° |
| 2026-05-08 19:00 | 40.09928 | -80.10848 | 38004 ft | 332 kts | 264° |
| 2026-05-08 19:00 | 40.09259 | -80.16755 | 38031 ft | 332 kts | 264° |
| 2026-05-08 19:01 | 40.08579 | -80.22743 | 38017 ft | 333 kts | 264° |
| 2026-05-08 19:01 | 40.07898 | -80.28704 | 38018 ft | 333 kts | 264° |
| 2026-05-08 19:02 | 40.07212 | -80.34683 | 37945 ft | 333 kts | 264° |
| 2026-05-08 19:02 | 40.06538 | -80.40532 | 37994 ft | 324 kts | 264° |
| 2026-05-08 19:03 | 40.05860 | -80.46390 | 37988 ft | 326 kts | 264° |
| 2026-05-08 19:03 | 40.05182 | -80.52215 | 37997 ft | 326 kts | 264° |
| 2026-05-08 19:04 | 40.04498 | -80.58060 | 37991 ft | 325 kts | 264° |
| 2026-05-08 19:04 | 40.03814 | -80.63896 | 37985 ft | 324 kts | 264° |
| 2026-05-08 19:05 | 40.03127 | -80.69721 | 37985 ft | 324 kts | 264° |
| 2026-05-08 19:05 | 40.02441 | -80.75503 | 37294 ft | 325 kts | 264° |
| 2026-05-08 19:05 | 40.02093 | -80.78431 | 36487 ft | 325 kts | 264° |
| 2026-05-08 19:06 | 40.01615 | -80.81322 | 35721 ft | 325 kts | 261° |
| 2026-05-08 19:06 | 40.00935 | -80.84149 | 34956 ft | 328 kts | 256° |
| 2026-05-08 19:06 | 40.00138 | -80.86899 | 34210 ft | 328 kts | 256° |
| 2026-05-08 19:06 | 39.99312 | -80.89676 | 33250 ft | 329 kts | 256° |
| 2026-05-08 19:07 | 39.98467 | -80.92488 | 32134 ft | 333 kts | 255° |
| 2026-05-08 19:07 | 39.97617 | -80.95292 | 30959 ft | 340 kts | 255° |
| 2026-05-08 19:07 | 39.96737 | -80.98192 | 29671 ft | 348 kts | 254° |
| 2026-05-08 19:07 | 39.95843 | -81.01136 | 28571 ft | 349 kts | 254° |
| 2026-05-08 19:08 | 39.94954 | -81.04060 | 27646 ft | 345 kts | 254° |
| 2026-05-08 19:08 | 39.94084 | -81.06929 | 26768 ft | 341 kts | 254° |
| 2026-05-08 19:08 | 39.93214 | -81.09796 | 25918 ft | 338 kts | 254° |
| 2026-05-08 19:08 | 39.92361 | -81.12604 | 25089 ft | 336 kts | 253° |
| 2026-05-08 19:09 | 39.91501 | -81.15429 | 24259 ft | 334 kts | 253° |
| 2026-05-08 19:09 | 39.90650 | -81.18223 | 23516 ft | 330 kts | 253° |
| 2026-05-08 19:09 | 39.89802 | -81.20998 | 22618 ft | 328 kts | 253° |
| 2026-05-08 19:09 | 39.88962 | -81.23749 | 21756 ft | 325 kts | 253° |
| 2026-05-08 19:10 | 39.88137 | -81.26449 | 20901 ft | 324 kts | 253° |
| 2026-05-08 19:10 | 39.87305 | -81.29170 | 20092 ft | 322 kts | 253° |
| 2026-05-08 19:10 | 39.86478 | -81.31872 | 19322 ft | 320 kts | 253° |
| 2026-05-08 19:10 | 39.85649 | -81.34571 | 18569 ft | 319 kts | 253° |
| 2026-05-08 19:11 | 39.84827 | -81.37252 | 17755 ft | 318 kts | 253° |
| 2026-05-08 19:11 | 39.84007 | -81.39927 | 16943 ft | 317 kts | 253° |
| 2026-05-08 19:11 | 39.83188 | -81.42587 | 16156 ft | 316 kts | 253° |
| 2026-05-08 19:11 | 39.82359 | -81.45208 | 15399 ft | 316 kts | 251° |
| 2026-05-08 19:12 | 39.81542 | -81.47861 | 14674 ft | 314 kts | 253° |
| 2026-05-08 19:12 | 39.80776 | -81.50469 | 14481 ft | 308 kts | 253° |
| 2026-05-08 19:12 | 39.80020 | -81.53069 | 14357 ft | 313 kts | 253° |
| 2026-05-08 19:12 | 39.79243 | -81.55724 | 14244 ft | 313 kts | 253° |
| 2026-05-08 19:13 | 39.78480 | -81.58334 | 14123 ft | 314 kts | 253° |
| 2026-05-08 19:13 | 39.77701 | -81.60992 | 14001 ft | 314 kts | 253° |
| 2026-05-08 19:13 | 39.76933 | -81.63613 | 13888 ft | 313 kts | 253° |
| 2026-05-08 19:13 | 39.76147 | -81.66293 | 13709 ft | 312 kts | 253° |
| 2026-05-08 19:14 | 39.75385 | -81.68890 | 13523 ft | 311 kts | 253° |
| 2026-05-08 19:14 | 39.74615 | -81.71510 | 13327 ft | 309 kts | 252° |
| 2026-05-08 19:14 | 39.73848 | -81.74113 | 13135 ft | 308 kts | 252° |
| 2026-05-08 19:14 | 39.73080 | -81.76713 | 12939 ft | 309 kts | 253° |
| 2026-05-08 19:15 | 39.72311 | -81.79324 | 12765 ft | 308 kts | 252° |
| 2026-05-08 19:15 | 39.71540 | -81.81908 | 12593 ft | 307 kts | 252° |
| 2026-05-08 19:15 | 39.70778 | -81.84500 | 12429 ft | 306 kts | 253° |
| 2026-05-08 19:15 | 39.70022 | -81.87088 | 12254 ft | 306 kts | 252° |
| 2026-05-08 19:16 | 39.69269 | -81.89631 | 12070 ft | 306 kts | 252° |
| 2026-05-08 19:16 | 39.68503 | -81.92203 | 11892 ft | 304 kts | 252° |
| 2026-05-08 19:16 | 39.67745 | -81.94763 | 11767 ft | 303 kts | 252° |
| 2026-05-08 19:16 | 39.66982 | -81.97321 | 11651 ft | 304 kts | 251° |
| 2026-05-08 19:17 | 39.66221 | -81.99886 | 11532 ft | 303 kts | 252° |
| 2026-05-08 19:17 | 39.65476 | -82.02395 | 11461 ft | 302 kts | 252° |
| 2026-05-08 19:17 | 39.64717 | -82.04944 | 11394 ft | 303 kts | 251° |
| 2026-05-08 19:17 | 39.63956 | -82.07498 | 11332 ft | 302 kts | 252° |
| 2026-05-08 19:18 | 39.63572 | -82.10139 | 11248 ft | 299 kts | 274° |
| 2026-05-08 19:18 | 39.64057 | -82.12751 | 11170 ft | 299 kts | 288° |
| 2026-05-08 19:18 | 39.64854 | -82.15218 | 10856 ft | 300 kts | 294° |
| 2026-05-08 19:18 | 39.65798 | -82.17627 | 10485 ft | 292 kts | 296° |
| 2026-05-08 19:19 | 39.66733 | -82.19817 | 10024 ft | 268 kts | 297° |
| 2026-05-08 19:19 | 39.67680 | -82.21891 | 9504 ft | 269 kts | 300° |
| 2026-05-08 19:19 | 39.68756 | -82.23886 | 8970 ft | 269 kts | 302° |
| 2026-05-08 19:19 | 39.69855 | -82.25835 | 8441 ft | 261 kts | 302° |
| 2026-05-08 19:20 | 39.70904 | -82.27686 | 7906 ft | 252 kts | 302° |
| 2026-05-08 19:20 | 39.71240 | -82.28280 | 7737 ft | 253 kts | 302° |
| 2026-05-08 19:20 | 39.72985 | -82.31196 | 7078 ft | 238 kts | 307° |
| 2026-05-08 19:20 | 39.74113 | -82.32755 | 6848 ft | 236 kts | 309° |
| 2026-05-08 19:21 | 39.75272 | -82.34271 | 6637 ft | 236 kts | 310° |
| 2026-05-08 19:21 | 39.76497 | -82.35708 | 6432 ft | 238 kts | 313° |
| 2026-05-08 19:21 | 39.77747 | -82.37076 | 6205 ft | 238 kts | 314° |
| 2026-05-08 19:21 | 39.79025 | -82.38450 | 5994 ft | 237 kts | 314° |
| 2026-05-08 19:22 | 39.80300 | -82.39836 | 5775 ft | 239 kts | 314° |
| 2026-05-08 19:22 | 39.81582 | -82.41223 | 5552 ft | 239 kts | 314° |
| 2026-05-08 19:22 | 39.82865 | -82.42608 | 5331 ft | 239 kts | 314° |
| 2026-05-08 19:22 | 39.84128 | -82.43974 | 5104 ft | 238 kts | 314° |
| 2026-05-08 19:23 | 39.85400 | -82.45352 | 4876 ft | 238 kts | 314° |
| 2026-05-08 19:23 | 39.86674 | -82.46733 | 4630 ft | 237 kts | 314° |
| 2026-05-08 19:23 | 39.87906 | -82.48058 | 4419 ft | 221 kts | 314° |
| 2026-05-08 19:23 | 39.89057 | -82.49310 | 4274 ft | 213 kts | 313° |
| 2026-05-08 19:24 | 39.90168 | -82.50523 | 4162 ft | 202 kts | 314° |
| 2026-05-08 19:24 | 39.91223 | -82.51666 | 4093 ft | 198 kts | 314° |
| 2026-05-08 19:24 | 39.92242 | -82.52768 | 4031 ft | 183 kts | 313° |
| 2026-05-08 19:24 | 39.93180 | -82.53846 | 4000 ft | 175 kts | 301° |
| 2026-05-08 19:25 | 39.93733 | -82.55197 | 4020 ft | 174 kts | 296° |
| 2026-05-08 19:25 | 39.94401 | -82.56523 | 4057 ft | 173 kts | 296° |
| 2026-05-08 19:25 | 39.95051 | -82.57842 | 4109 ft | 174 kts | 296° |
| 2026-05-08 19:25 | 39.95716 | -82.59166 | 4110 ft | 175 kts | 296° |
| 2026-05-08 19:26 | 39.96380 | -82.60496 | 4118 ft | 175 kts | 296° |
| 2026-05-08 19:26 | 39.97046 | -82.61834 | 4093 ft | 176 kts | 296° |
| 2026-05-08 19:26 | 39.97630 | -82.63216 | 4055 ft | 170 kts | 283° |
| 2026-05-08 19:26 | 39.97818 | -82.64694 | 4046 ft | 166 kts | 271° |
| 2026-05-08 19:27 | 39.97918 | -82.66205 | 3978 ft | 169 kts | 272° |
| 2026-05-08 19:27 | 39.98031 | -82.67716 | 3778 ft | 162 kts | 271° |
| 2026-05-08 19:27 | 39.98107 | -82.69078 | 3562 ft | 148 kts | 271° |
| 2026-05-08 19:27 | 39.98180 | -82.70318 | 3360 ft | 127 kts | 271° |
| 2026-05-08 19:28 | 39.98242 | -82.71358 | 3201 ft | 106 kts | 270° |
| 2026-05-08 19:28 | 39.98292 | -82.72239 | 3039 ft | 100 kts | 270° |
| 2026-05-08 19:28 | 39.98346 | -82.73164 | 2943 ft | 103 kts | 270° |
| 2026-05-08 19:28 | 39.98401 | -82.74094 | 2832 ft | 103 kts | 270° |
| 2026-05-08 19:29 | 39.98453 | -82.75013 | 2695 ft | 99 kts | 270° |
| 2026-05-08 19:29 | 39.98506 | -82.75915 | 2570 ft | 100 kts | 270° |
| 2026-05-08 19:29 | 39.98559 | -82.76817 | 2442 ft | 100 kts | 270° |
| 2026-05-08 19:29 | 39.98608 | -82.77729 | 2314 ft | 101 kts | 270° |
| 2026-05-08 19:30 | 39.98647 | -82.78639 | 2169 ft | 100 kts | 269° |
| 2026-05-08 19:30 | 39.98691 | -82.79542 | 2010 ft | 101 kts | 271° |
| 2026-05-08 19:30 | 39.98760 | -82.80456 | 1808 ft | 99 kts | 270° |
| 2026-05-08 19:30 | 39.98813 | -82.81346 | 1717 ft | 99 kts | 270° |
| 2026-05-08 19:31 | 39.98856 | -82.82247 | 1615 ft | 100 kts | 269° |
| 2026-05-08 19:31 | 39.98916 | -82.83145 | 1461 ft | 102 kts | 272° |
| 2026-05-08 19:31 | 39.98968 | -82.84048 | 1315 ft | 100 kts | 273° |
| 2026-05-08 19:31 | 39.99032 | -82.84990 | 1262 ft | 105 kts | 271° |
| 2026-05-08 19:32 | 39.99081 | -82.85919 | 1079 ft | 103 kts | 271° |
| 2026-05-08 19:32 | 39.99133 | -82.86823 | 906 ft | 96 kts | 268° |
| 2026-05-08 19:32 | 39.99184 | -82.87674 | 825 ft | 89 kts | 266° |
| 2026-05-08 19:32 | 39.99219 | -82.88324 | 823 ft | 51 kts | 274° |
| 2026-05-08 19:33 | 39.99240 | -82.88708 | 824 ft | 34 kts | 275° |
| 2026-05-08 19:33 | 39.99257 | -82.88999 | 822 ft | 20 kts | 274° |
| 2026-05-08 19:33 | 39.99276 | -82.89086 | 821 ft | 8 kts | 309° |
| 2026-05-08 19:33 | 39.99323 | -82.89114 | 823 ft | 8 kts | 356° |
| 2026-05-08 19:34 | 39.99397 | -82.89105 | 823 ft | 13 kts | 6° |
| 2026-05-08 19:34 | 39.99435 | -82.89054 | 822 ft | 8 kts | 82° |
| 2026-05-08 19:34 | 39.99431 | -82.88963 | 823 ft | 13 kts | 94° |
| 2026-05-08 19:34 | 39.99423 | -82.88811 | 822 ft | 20 kts | 96° |
| 2026-05-08 19:35 | 39.99412 | -82.88612 | 822 ft | 22 kts | 93° |
| 2026-05-08 19:35 | 39.99401 | -82.88410 | 822 ft | 15 kts | 94° |
| 2026-05-08 19:35 | 39.99439 | -82.88326 | 822 ft | 13 kts | 10° |
| 2026-05-08 19:35 | 39.99530 | -82.88318 | 823 ft | 4 kts | 6° |
| 2026-05-08 19:36 | 39.99568 | -82.88314 | 823 ft | 9 kts | 4° |
| 2026-05-08 19:36 | 39.99613 | -82.88303 | 823 ft | 4 kts | 14° |
| 2026-05-08 19:36 | 39.99651 | -82.88302 | 823 ft | 6 kts | 345° |
| 2026-05-08 19:36 | 39.99673 | -82.88342 | 823 ft | 6 kts | 282° |
| 2026-05-08 19:37 | 39.99675 | -82.88363 | 823 ft | 2 kts | 275° |
| 2026-05-08 19:37 | 39.99676 | -82.88378 | 823 ft | 1 kts | 275° |
| 2026-05-08 19:37 | 39.99676 | -82.88383 | 823 ft | 0 kts | 275° |